Time;durP1;ratioP1;P1;durP2;ratioP2;P2;SDS_P1;SDS_P2;PMS_P1;PMS_P2;Temp;Humidity;BMP_temperature;BMP_pressure;BME280_temperature;BME280_humidity;BME280_pressure;Samples;Min_cycle;Max_cycle;Signal;HPM_P1;HPM_P2
2022/12/28 00:00:47;;;;;;;2.80;1.40;;;;;;;3.80;100.00;101332.56;5069924;28;20037;-78
2022/12/28 00:03:13;;;;;;;3.70;1.55;;;;;;;3.86;100.00;101332.75;5070136;28;20037;-78
2022/12/28 00:05:38;;;;;;;2.80;1.50;;;;;;;3.87;100.00;101337.13;5071712;28;20649;-78
2022/12/28 00:08:03;;;;;;;2.38;1.38;;;;;;;3.92;100.00;101332.94;5071606;28;20403;-78
2022/12/28 00:10:29;;;;;;;3.17;1.65;;;;;;;3.98;100.00;101339.22;5070065;28;20048;-78
2022/12/28 00:12:54;;;;;;;2.88;1.80;;;;;;;4.05;100.00;101335.97;5069587;28;20037;-79
2022/12/28 00:15:20;;;;;;;1.75;1.45;;;;;;;4.10;100.00;101323.94;5069810;28;20129;-78
2022/12/28 00:17:45;;;;;;;1.77;1.30;;;;;;;4.13;100.00;101324.03;5070427;28;20050;-78
2022/12/28 00:20:11;;;;;;;2.22;1.55;;;;;;;4.16;100.00;101324.16;5069993;28;20033;-78
2022/12/28 00:22:36;;;;;;;2.03;1.40;;;;;;;4.19;100.00;101311.19;5069537;28;20041;-78
2022/12/28 00:25:01;;;;;;;2.42;1.70;;;;;;;4.14;100.00;101305.81;5072927;28;20056;-78
2022/12/28 00:27:27;;;;;;;2.28;1.30;;;;;;;4.10;100.00;101301.31;5069445;28;20067;-78
2022/12/28 00:29:52;;;;;;;2.08;1.48;;;;;;;4.10;100.00;101297.84;5072449;28;20045;-78
2022/12/28 00:32:17;;;;;;;3.95;1.67;;;;;;;4.14;100.00;101302.34;5069816;28;20087;-78
2022/12/28 00:34:44;;;;;;;2.60;1.40;;;;;;;4.12;100.00;101304.00;5077587;28;20037;-78
2022/12/28 00:37:09;;;;;;;2.33;1.40;;;;;;;4.10;100.00;101308.28;5064370;28;20026;-78
2022/12/28 00:39:34;;;;;;;2.03;1.50;;;;;;;4.10;100.00;101317.00;5071686;28;20037;-78
2022/12/28 00:42:00;;;;;;;2.55;1.38;;;;;;;4.06;100.00;101304.69;5076691;28;20063;-78
2022/12/28 00:44:25;;;;;;;2.72;1.75;;;;;;;4.04;100.00;101295.03;5069387;28;20067;-78
2022/12/28 00:46:50;;;;;;;3.80;1.95;;;;;;;4.04;100.00;101298.53;5080359;28;20037;-78
2022/12/28 00:49:16;;;;;;;2.25;1.70;;;;;;;4.03;100.00;101288.00;5078761;28;20096;-79
2022/12/28 00:51:42;;;;;;;1.92;1.20;;;;;;;4.01;100.00;101289.69;5069484;28;20040;-78
2022/12/28 00:54:07;;;;;;;1.95;1.38;;;;;;;4.05;100.00;101291.56;5069537;28;20063;-79
2022/12/28 00:56:32;;;;;;;2.00;1.52;;;;;;;4.05;100.00;101291.56;5070749;28;20037;-78
2022/12/28 00:58:59;;;;;;;2.40;1.40;;;;;;;4.05;100.00;101286.34;5077071;28;20037;-78
2022/12/28 01:01:26;;;;;;;2.70;1.13;;;;;;;4.07;100.00;101287.28;5069472;28;20037;-79
2022/12/28 01:03:55;;;;;;;2.20;1.40;;;;;;;4.04;100.00;101274.13;5067913;28;20033;-79
2022/12/28 01:06:20;;;;;;;1.52;1.30;;;;;;;3.92;100.00;101274.59;5068834;28;20514;-79
2022/12/28 01:08:46;;;;;;;3.35;1.30;;;;;;;3.80;100.00;101277.72;5071613;28;20117;-79
2022/12/28 01:11:16;;;;;;;2.67;1.50;;;;;;;3.72;100.00;101276.53;5067375;28;20055;-79
2022/12/28 01:13:42;;;;;;;2.40;1.40;;;;;;;3.65;100.00;101277.19;5077323;28;20116;-78
2022/12/28 01:16:11;;;;;;;2.08;1.27;;;;;;;3.57;100.00;101265.63;5071327;28;20044;-79
2022/12/28 01:18:36;;;;;;;2.05;1.20;;;;;;;3.50;100.00;101270.59;5070277;28;20040;-79
2022/12/28 01:21:14;;;;;;;1.85;1.30;;;;;;;3.44;100.00;101269.53;5067854;28;20434;-78
2022/12/28 01:23:41;;;;;;;2.60;1.23;;;;;;;3.36;100.00;101261.44;5066284;28;20085;-78
2022/12/28 01:26:06;;;;;;;2.08;1.30;;;;;;;3.30;100.00;101261.19;5069163;28;20526;-78
2022/12/28 01:28:32;;;;;;;1.77;1.33;;;;;;;3.27;100.00;101261.09;5068768;28;20127;-79
2022/12/28 01:31:06;;;;;;;2.40;1.35;;;;;;;3.27;100.00;101261.09;5069294;28;20045;-79
2022/12/28 01:33:31;;;;;;;2.65;1.40;;;;;;;3.21;100.00;101245.22;5067941;28;20036;-79
2022/12/28 01:35:57;;;;;;;2.00;1.20;;;;;;;3.21;100.00;101245.22;5075984;28;20029;-78
2022/12/28 01:38:23;;;;;;;4.05;1.40;;;;;;;3.18;100.00;101245.13;5074143;28;20086;-78
2022/12/28 01:40:48;;;;;;;3.75;1.80;;;;;;;3.14;100.00;101243.22;5068636;28;20085;-79
2022/12/28 01:43:14;;;;;;;2.08;1.40;;;;;;;3.12;100.00;101237.06;5080270;28;20040;-79
2022/12/28 01:45:41;;;;;;;2.95;1.52;;;;;;;3.13;100.00;101237.13;5073812;28;20048;-79
2022/12/28 01:48:18;;;;;;;2.25;1.10;;;;;;;3.16;100.00;101228.53;5080921;28;20037;-78
2022/12/28 01:50:44;;;;;;;1.55;1.10;;;;;;;3.20;100.00;101227.81;5084189;28;20564;-78
2022/12/28 01:53:10;;;;;;;1.85;1.15;;;;;;;3.22;100.00;101220.91;5072513;28;20037;-78
2022/12/28 01:55:40;;;;;;;2.47;0.80;;;;;;;3.25;100.00;101215.81;5072538;28;20039;-78
2022/12/28 01:58:11;;;;;;;1.00;0.70;;;;;;;3.25;100.00;101202.78;5071777;28;20039;-78
2022/12/28 02:00:38;;;;;;;1.10;0.73;;;;;;;3.28;100.00;101206.38;5084609;28;20036;-79
2022/12/28 02:03:10;;;;;;;1.10;0.80;;;;;;;3.32;100.00;101196.03;5072041;28;20040;-78
2022/12/28 02:05:39;;;;;;;1.53;0.73;;;;;;;3.33;100.00;101193.50;5071318;28;20020;-78
2022/12/28 02:08:14;;;;;;;1.27;0.90;;;;;;;3.36;100.00;101193.59;5053213;28;20289;-77
2022/12/28 02:10:40;;;;;;;0.90;0.60;;;;;;;3.38;100.00;101175.34;5079357;28;20096;-79
2022/12/28 02:13:08;;;;;;;1.02;0.73;;;;;;;3.39;100.00;101178.03;5070978;28;20025;-78
2022/12/28 02:15:33;;;;;;;1.05;0.60;;;;;;;3.40;100.00;101177.19;5073278;28;20051;-78
2022/12/28 02:17:59;;;;;;;2.30;1.10;;;;;;;3.38;100.00;101165.84;5072297;28;20036;-78
2022/12/28 02:20:33;;;;;;;0.75;0.60;;;;;;;3.42;100.00;101164.19;5071615;28;20086;-79
2022/12/28 02:23:37;;;;;;;0.90;0.50;;;;;;;3.39;100.00;101151.94;5079387;28;20033;-78
2022/12/28 02:26:34;;;;;;;1.58;0.75;;;;;;;3.33;100.00;101151.75;5049455;28;20052;-77
2022/12/28 02:29:17;;;;;;;0.82;0.50;;;;;;;3.31;100.00;101142.97;5068760;28;20044;-78
2022/12/28 02:32:20;;;;;;;0.85;0.50;;;;;;;3.33;100.00;101146.53;5083598;28;20100;-78
2022/12/28 02:35:08;;;;;;;0.68;0.50;;;;;;;3.33;100.00;101145.63;5067416;28;20437;-79
2022/12/28 02:37:50;;;;;;;1.50;0.60;;;;;;;3.32;100.00;101136.91;5069968;28;20037;-78
2022/12/28 02:40:44;;;;;;;2.05;0.60;;;;;;;3.31;100.00;101142.09;5070716;28;20032;-78
2022/12/28 02:43:11;;;;;;;1.52;0.90;;;;;;;3.29;100.00;101135.09;5066397;28;20044;-78
2022/12/28 02:51:49;;;;;;;1.10;0.50;;;;;;;3.34;100.00;101118.72;5067594;28;20033;-78
2022/12/28 02:58:07;;;;;;;1.17;0.60;;;;;;;3.33;100.00;101104.78;5060809;28;20038;-78
2022/12/28 03:00:38;;;;;;;0.60;0.60;;;;;;;3.33;100.00;101096.03;5083619;28;20033;-78
2022/12/28 03:03:20;;;;;;;1.30;0.60;;;;;;;3.33;100.00;101098.66;5078090;28;20612;-78
2022/12/28 03:09:03;;;;;;;0.80;0.60;;;;;;;3.29;100.00;101076.81;5067793;28;20570;-78
2022/12/28 03:11:51;;;;;;;1.27;0.60;;;;;;;3.31;100.00;101076.88;5068489;28;20033;-78
2022/12/28 03:14:29;;;;;;;0.77;0.47;;;;;;;3.31;100.00;101064.69;5084630;28;20128;-79
2022/12/28 03:31:06;;;;;;;0.98;0.50;;;;;;;3.39;100.00;101037.13;5058504;28;20488;-79
2022/12/28 03:33:46;;;;;;;0.93;0.50;;;;;;;3.42;100.00;101029.38;5074248;28;20035;-78
2022/12/28 03:36:16;;;;;;;0.50;0.50;;;;;;;3.42;100.00;101016.34;5067627;28;20034;-78
2022/12/28 03:39:03;;;;;;;0.90;0.50;;;;;;;3.43;100.00;101010.31;5069566;28;20048;-78
2022/12/28 03:41:37;;;;;;;0.82;0.50;;;;;;;3.42;100.00;101007.63;5068100;28;20029;-79
2022/12/28 03:44:26;;;;;;;0.43;0.40;;;;;;;3.41;100.00;101003.28;5051070;28;20043;-79
2022/12/28 03:47:05;;;;;;;1.00;0.57;;;;;;;3.40;100.00;100996.25;5082524;28;20040;-78
2022/12/28 03:49:31;;;;;;;1.23;0.70;;;;;;;3.36;100.00;101000.50;5077854;28;20060;-79
2022/12/28 03:51:59;;;;;;;1.05;0.50;;;;;;;3.28;100.00;100992.44;5077504;28;20032;-78
2022/12/28 03:54:24;;;;;;;1.33;0.70;;;;;;;3.23;100.00;100982.72;5078737;28;20033;-79
2022/12/28 03:56:50;;;;;;;0.93;0.50;;;;;;;3.19;100.00;100981.72;5079104;28;20108;-78
2022/12/28 03:59:20;;;;;;;0.63;0.40;;;;;;;3.12;100.00;100984.06;5095524;22;20041;-76
2022/12/28 04:01:49;;;;;;;1.42;0.50;;;;;;;3.03;100.00;100969.91;5050068;28;20086;-75
2022/12/28 04:04:16;;;;;;;0.88;0.40;;;;;;;3.00;100.00;100969.84;5046999;28;20115;-75
2022/12/28 04:06:43;;;;;;;1.40;0.60;;;;;;;2.95;100.00;100955.75;5049737;28;20112;-75
2022/12/28 04:09:08;;;;;;;1.35;0.57;;;;;;;2.92;100.00;100960.00;5056881;28;20443;-76
2022/12/28 04:11:37;;;;;;;0.57;0.50;;;;;;;2.87;100.00;100953.75;5041988;28;20147;-75
2022/12/28 04:14:04;;;;;;;0.95;0.50;;;;;;;2.81;100.00;100952.72;5038502;28;20124;-76
2022/12/28 04:16:33;;;;;;;0.43;0.40;;;;;;;2.75;100.00;100949.03;5037561;28;20029;-76
2022/12/28 04:18:59;;;;;;;1.15;0.60;;;;;;;2.70;100.00;100945.38;5040379;28;20042;-76
2022/12/28 04:21:24;;;;;;;1.20;0.55;;;;;;;2.63;100.00;100937.38;5039734;28;20029;-75
2022/12/28 04:23:49;;;;;;;1.13;0.50;;;;;;;2.59;100.00;100935.53;5041511;28;20033;-76
2022/12/28 04:26:18;;;;;;;1.88;0.77;;;;;;;2.56;100.00;100934.53;5037728;28;20496;-75
2022/12/28 04:28:46;;;;;;;0.40;0.40;;;;;;;2.57;100.00;100933.69;5040862;28;20047;-75
2022/12/28 04:31:30;;;;;;;0.70;0.50;;;;;;;2.60;100.00;100926.84;5042668;28;20036;-75
2022/12/28 04:34:01;;;;;;;0.45;0.38;;;;;;;2.58;100.00;100909.41;5039157;28;20088;-76
2022/12/28 04:36:28;;;;;;;0.73;0.40;;;;;;;2.58;100.00;100919.81;5038741;28;20025;-75
2022/12/28 04:38:54;;;;;;;0.60;0.50;;;;;;;2.59;100.00;100911.16;5038706;28;20087;-75
2022/12/28 04:41:19;;;;;;;2.00;0.60;;;;;;;2.59;100.00;100906.84;5042415;28;20032;-75
2022/12/28 04:43:45;;;;;;;0.50;0.50;;;;;;;2.60;100.00;100903.41;5039221;28;20091;-76
2022/12/28 04:46:13;;;;;;;0.70;0.40;;;;;;;2.66;100.00;100912.25;5041803;28;20506;-76
2022/12/28 04:48:38;;;;;;;0.50;0.50;;;;;;;2.73;100.00;100902.06;5036161;28;20037;-75
2022/12/28 04:51:15;;;;;;;0.73;0.43;;;;;;;2.76;100.00;100890.84;5041220;28;20042;-75
2022/12/28 04:53:40;;;;;;;0.50;0.50;;;;;;;2.80;100.00;100892.72;5035908;28;20156;-75
2022/12/28 04:56:07;;;;;;;0.50;0.40;;;;;;;2.90;100.00;100894.75;5041394;28;20577;-76
2022/12/28 04:58:33;;;;;;;0.40;0.40;;;;;;;3.01;100.00;100892.47;5035783;28;20026;-76
2022/12/28 05:01:07;;;;;;;0.65;0.50;;;;;;;3.12;100.00;100890.19;5039854;28;20044;-76
2022/12/28 05:03:34;;;;;;;0.40;0.30;;;;;;;3.23;100.00;100899.25;5035626;28;20037;-75
2022/12/28 05:06:01;;;;;;;0.57;0.43;;;;;;;3.33;100.00;100900.38;5041092;28;20040;-76
2022/12/28 05:08:26;;;;;;;0.60;0.50;;;;;;;3.42;100.00;100896.31;5044285;28;20388;-75
2022/12/28 05:10:51;;;;;;;1.13;0.50;;;;;;;3.50;100.00;100889.59;5039969;28;20091;-75
2022/12/28 05:13:17;;;;;;;0.52;0.40;;;;;;;3.59;100.00;100888.97;5041815;28;20158;-76
2022/12/28 05:15:42;;;;;;;0.45;0.40;;;;;;;3.67;100.00;100878.75;5041439;28;20029;-76
2022/12/28 05:18:07;;;;;;;0.50;0.40;;;;;;;3.68;99.97;100883.13;5045684;28;20410;-76
2022/12/28 05:20:33;;;;;;;0.93;0.40;;;;;;;3.67;99.38;100876.13;5045187;28;20479;-76
2022/12/28 05:22:58;;;;;;;0.63;0.40;;;;;;;3.68;99.09;100877.91;5044016;28;20037;-76
2022/12/28 05:25:23;;;;;;;0.52;0.40;;;;;;;3.70;99.11;100877.09;5043826;28;20075;-76
2022/12/28 05:27:49;;;;;;;0.45;0.40;;;;;;;3.70;98.73;100882.31;5044908;28;20032;-75
2022/12/28 05:30:14;;;;;;;0.45;0.40;;;;;;;3.69;97.94;100880.56;5042714;28;20033;-76
2022/12/28 05:32:39;;;;;;;0.75;0.40;;;;;;;3.74;98.34;100876.31;5042484;28;20110;-76
2022/12/28 05:35:05;;;;;;;0.47;0.40;;;;;;;3.79;97.40;100873.84;5042700;28;20029;-76
2022/12/28 05:37:30;;;;;;;0.30;0.30;;;;;;;3.83;97.12;100883.53;5028065;28;20044;-76
2022/12/28 05:39:56;;;;;;;0.75;0.40;;;;;;;3.91;96.62;100882.00;5043750;28;20047;-76
2022/12/28 05:42:21;;;;;;;0.47;0.47;;;;;;;3.99;96.24;100873.50;5042404;28;20041;-75
2022/12/28 05:44:46;;;;;;;0.60;0.40;;;;;;;4.06;95.95;100862.34;5044767;28;20082;-76
2022/12/28 05:47:12;;;;;;;0.82;0.40;;;;;;;4.13;95.46;100864.28;5042731;28;20040;-76
2022/12/28 05:49:37;;;;;;;0.60;0.47;;;;;;;4.18;95.57;100866.16;5039067;28;20033;-75
2022/12/28 05:52:03;;;;;;;0.77;0.40;;;;;;;4.21;94.71;100864.47;5042752;28;20033;-75
2022/12/28 05:54:28;;;;;;;1.13;0.95;;;;;;;4.23;95.12;100861.03;5044250;28;20083;-76
2022/12/28 05:56:53;;;;;;;0.95;0.40;;;;;;;4.23;94.96;100858.44;5043571;28;20373;-75
2022/12/28 05:59:19;;;;;;;0.98;0.50;;;;;;;4.25;94.43;100850.66;5045543;28;20522;-75
2022/12/28 06:01:44;;;;;;;0.50;0.50;;;;;;;4.29;95.48;100845.50;5042412;28;20042;-76
2022/12/28 06:04:15;;;;;;;0.40;0.35;;;;;;;4.32;94.46;100839.47;5045225;28;20438;-76
2022/12/28 06:06:41;;;;;;;0.65;0.40;;;;;;;4.31;94.34;100832.50;5040946;28;20541;-76
2022/12/28 06:09:06;;;;;;;0.85;0.40;;;;;;;4.29;94.55;100832.44;5030557;28;20034;-76
2022/12/28 06:11:32;;;;;;;0.40;0.40;;;;;;;4.37;94.35;100830.03;5042792;28;20029;-75
2022/12/28 06:13:58;;;;;;;0.40;0.40;;;;;;;4.42;93.42;100828.41;5044581;28;20045;-76
2022/12/28 06:16:28;;;;;;;0.70;0.40;;;;;;;4.48;93.20;100831.19;5041403;28;20048;-75
2022/12/28 06:18:54;;;;;;;0.40;0.40;;;;;;;4.56;92.56;100837.47;5044934;28;20037;-76
2022/12/28 06:21:28;;;;;;;0.70;0.40;;;;;;;4.67;92.38;100834.22;5042043;28;20087;-76
2022/12/28 06:23:58;;;;;;;0.47;0.40;;;;;;;4.73;92.38;100837.84;5039640;28;20079;-75
2022/12/28 06:26:25;;;;;;;0.40;0.40;;;;;;;4.86;91.79;100830.28;5041278;28;20120;-76
2022/12/28 06:28:50;;;;;;;0.68;0.40;;;;;;;4.95;90.26;100822.59;5043263;28;20399;-76
2022/12/28 06:31:18;;;;;;;1.95;1.25;;;;;;;4.97;89.94;100821.78;5043476;28;20037;-76
2022/12/28 06:33:44;;;;;;;1.50;1.00;;;;;;;5.02;89.17;100821.91;5041703;28;20033;-76
2022/12/28 06:36:12;;;;;;;1.27;0.88;;;;;;;5.14;89.52;100816.03;5036802;28;20104;-76
2022/12/28 06:38:37;;;;;;;2.00;1.08;;;;;;;5.17;89.61;100816.97;5043883;28;20029;-76
2022/12/28 06:41:04;;;;;;;1.67;1.30;;;;;;;5.16;87.78;100809.09;5042333;28;20047;-76
2022/12/28 06:43:40;;;;;;;1.33;1.10;;;;;;;5.18;87.67;100818.72;5042375;28;20041;-76
2022/12/28 06:46:06;;;;;;;1.42;1.05;;;;;;;5.26;87.75;100821.50;5037407;28;20045;-76
2022/12/28 06:48:32;;;;;;;1.13;1.00;;;;;;;5.30;87.48;100817.25;5043646;28;20379;-76
2022/12/28 06:51:00;;;;;;;2.15;1.33;;;;;;;5.38;87.65;100818.25;5042622;28;20056;-76
2022/12/28 06:53:27;;;;;;;2.72;1.27;;;;;;;5.37;87.90;100813.88;5041822;28;20061;-76
2022/12/28 06:55:55;;;;;;;1.30;1.05;;;;;;;5.38;88.80;100794.72;5043971;28;20083;-76
2022/12/28 06:58:21;;;;;;;2.30;1.20;;;;;;;5.34;89.39;100795.50;5041230;28;20437;-76
2022/12/28 07:00:46;;;;;;;1.88;1.25;;;;;;;5.32;89.76;100789.34;5043012;28;20025;-76
2022/12/28 07:03:12;;;;;;;1.63;1.00;;;;;;;5.20;91.05;100780.41;5043318;28;20108;-77
2022/12/28 07:05:37;;;;;;;1.60;1.00;;;;;;;5.28;91.58;100788.41;5042905;28;20041;-77
2022/12/28 07:08:02;;;;;;;1.05;0.88;;;;;;;5.31;90.77;100784.97;5044561;28;20029;-77
2022/12/28 07:10:28;;;;;;;1.38;0.80;;;;;;;5.36;90.65;100791.16;5041497;28;20048;-78
2022/12/28 07:12:53;;;;;;;1.50;0.90;;;;;;;5.44;90.63;100784.34;5043063;28;20034;-77
2022/12/28 07:15:18;;;;;;;1.00;0.90;;;;;;;5.48;90.12;100779.19;5042977;28;20037;-78
2022/12/28 07:17:43;;;;;;;1.33;0.90;;;;;;;5.44;90.05;100781.72;5042451;28;20040;-78
2022/12/28 07:20:09;;;;;;;1.40;1.00;;;;;;;5.51;91.48;100770.53;5042973;28;20040;-78
2022/12/28 07:22:34;;;;;;;0.88;0.80;;;;;;;5.51;92.09;100761.78;5043173;28;20041;-78
2022/12/28 07:25:00;;;;;;;1.13;0.88;;;;;;;5.54;93.33;100754.00;5040928;28;20029;-77
2022/12/28 07:27:25;;;;;;;1.20;0.90;;;;;;;5.54;93.84;100751.38;5044435;28;20102;-78
2022/12/28 07:29:50;;;;;;;1.52;1.05;;;;;;;5.57;93.43;100747.06;5041269;28;20030;-78
2022/12/28 07:32:16;;;;;;;0.88;0.88;;;;;;;5.58;92.60;100746.22;5043964;28;20033;-77
2022/12/28 07:34:41;;;;;;;0.85;0.80;;;;;;;5.62;93.75;100744.53;5046074;28;20454;-77
2022/12/28 07:37:06;;;;;;;8.15;7.68;;;;;;;5.68;94.65;100734.16;5041797;28;20558;-78
2022/12/28 07:39:32;;;;;;;2.35;2.10;;;;;;;5.70;95.43;100730.69;5040251;28;20033;-78
2022/12/28 07:41:57;;;;;;;3.90;3.60;;;;;;;5.75;95.68;100727.28;5040282;28;20049;-77
2022/12/28 07:44:22;;;;;;;2.70;2.50;;;;;;;5.75;95.50;100732.53;5044181;28;20048;-77
2022/12/28 07:46:47;;;;;;;2.25;2.03;;;;;;;5.75;95.13;100732.53;5040941;28;20037;-78
2022/12/28 07:49:13;;;;;;;2.28;2.08;;;;;;;5.74;95.66;100721.19;5042047;28;20045;-78
2022/12/28 07:51:38;;;;;;;2.92;2.72;;;;;;;5.76;95.54;100726.41;5042230;28;20047;-78
2022/12/28 07:54:04;;;;;;;3.28;2.17;;;;;;;5.77;95.67;100725.59;5041592;28;20095;-78
2022/12/28 07:56:30;;;;;;;2.47;2.28;;;;;;;5.86;95.80;100720.47;5043305;28;20397;-78
2022/12/28 07:58:58;;;;;;;2.40;2.20;;;;;;;5.89;95.40;100716.19;5040491;28;20034;-77
2022/12/28 08:01:25;;;;;;;4.70;4.40;;;;;;;5.95;95.55;100723.28;5043598;28;20127;-78
2022/12/28 08:03:53;;;;;;;6.07;5.68;;;;;;;5.97;95.04;100710.19;5042134;28;20036;-76
2022/12/28 08:06:19;;;;;;;1.48;1.30;;;;;;;6.04;94.60;100699.84;5041560;28;20514;-76
2022/12/28 08:08:47;;;;;;;1.92;1.58;;;;;;;6.05;94.41;100701.63;5039895;28;20037;-76
2022/12/28 08:11:15;;;;;;;2.88;1.48;;;;;;;6.13;94.05;100696.47;5034627;28;20040;-75
2022/12/28 08:13:42;;;;;;;2.65;1.85;;;;;;;6.13;93.89;100689.50;5041814;28;20033;-76
2022/12/28 08:16:10;;;;;;;2.90;2.70;;;;;;;6.14;93.72;100688.63;5041152;28;20029;-76
2022/12/28 08:18:35;;;;;;;3.13;2.83;;;;;;;6.19;93.93;100683.47;5038951;28;20669;-76
2022/12/28 08:21:19;;;;;;;1.52;1.40;;;;;;;6.27;93.71;100671.34;5042832;28;20151;-75
2022/12/28 08:23:45;;;;;;;1.73;1.60;;;;;;;6.11;94.48;100674.63;5039901;28;20044;-76
2022/12/28 08:26:12;;;;;;;2.88;1.80;;;;;;;6.19;94.11;100673.00;5039305;28;20042;-76
2022/12/28 08:28:39;;;;;;;2.30;1.70;;;;;;;6.22;93.43;100670.41;5035886;28;20076;-75
2022/12/28 08:31:10;;;;;;;1.70;1.60;;;;;;;6.18;93.47;100671.22;5041732;28;20052;-75
2022/12/28 08:33:36;;;;;;;15.93;14.90;;;;;;;6.28;93.89;100669.59;5041971;28;20033;-76
2022/12/28 08:36:03;;;;;;;9.20;8.70;;;;;;;6.32;92.79;100674.03;5039401;28;20056;-75
2022/12/28 08:38:28;;;;;;;5.35;4.85;;;;;;;6.38;93.17;100666.25;5042685;28;20037;-76
2022/12/28 08:40:58;;;;;;;5.47;4.88;;;;;;;6.48;93.15;100665.50;5039783;28;20100;-76
2022/12/28 08:43:24;;;;;;;5.10;4.70;;;;;;;6.55;92.62;100664.72;5039727;28;20105;-76
2022/12/28 08:46:17;;;;;;;5.07;4.68;;;;;;;6.72;91.65;100653.56;5040094;28;20030;-75
2022/12/28 08:48:42;;;;;;;6.18;5.70;;;;;;;6.77;91.15;100668.47;5038726;28;20470;-76
2022/12/28 08:51:13;;;;;;;5.60;4.88;;;;;;;6.76;90.82;100664.09;5042847;28;20037;-75
2022/12/28 08:53:39;;;;;;;5.63;5.22;;;;;;;6.83;91.05;100665.03;5043056;28;20547;-75
2022/12/28 08:56:16;;;;;;;5.90;5.47;;;;;;;6.94;90.79;100666.06;5044750;28;20072;-75
2022/12/28 08:58:43;;;;;;;7.28;6.78;;;;;;;7.01;89.86;100665.22;5046317;28;20499;-76
2022/12/28 09:01:20;;;;;;;6.95;6.30;;;;;;;7.07;90.22;100656.53;5043750;28;20480;-75
2022/12/28 09:03:47;;;;;;;6.30;5.80;;;;;;;7.16;89.92;100654.03;5045254;28;20051;-76
2022/12/28 09:06:16;;;;;;;8.32;7.72;;;;;;;7.24;89.83;100648.84;5041317;28;20033;-76
2022/12/28 09:08:41;;;;;;;12.07;11.40;;;;;;;7.24;89.88;100654.09;5045486;28;20064;-75
2022/12/28 09:11:10;;;;;;;10.60;10.00;;;;;;;7.37;89.59;100655.97;5059544;28;20029;-76
2022/12/28 09:13:36;;;;;;;11.70;11.10;;;;;;;7.43;89.18;100650.75;5061776;28;20036;-76
2022/12/28 09:16:04;;;;;;;11.80;11.10;;;;;;;7.53;89.80;100646.47;5042753;28;20029;-75
2022/12/28 09:18:30;;;;;;;10.35;9.65;;;;;;;7.55;88.79;100649.13;5039484;28;20033;-76
2022/12/28 09:20:56;;;;;;;10.55;9.85;;;;;;;7.65;88.62;100645.66;5043895;28;20178;-75
2022/12/28 09:23:22;;;;;;;10.50;9.82;;;;;;;7.73;88.54;100645.72;5042761;28;20167;-76
2022/12/28 09:25:48;;;;;;;9.57;8.95;;;;;;;7.78;88.05;100647.56;5044375;28;20045;-75
2022/12/28 09:28:13;;;;;;;15.93;15.07;;;;;;;7.79;87.61;100646.66;5043080;28;20043;-76
2022/12/28 09:30:39;;;;;;;9.90;9.27;;;;;;;7.83;86.56;100640.56;5045847;28;20032;-76
2022/12/28 09:35:49;;;;;;;11.27;10.57;;;;;;;7.99;87.00;100630.13;5041087;28;20510;-75
2022/12/28 09:38:14;;;;;;;9.43;8.82;;;;;;;8.07;85.91;100636.34;5043121;28;20056;-76
2022/12/28 09:40:40;;;;;;;8.70;8.10;;;;;;;8.06;86.32;100624.06;5042418;28;20052;-75
2022/12/28 09:43:07;;;;;;;9.38;8.77;;;;;;;8.12;86.78;100629.34;5042280;28;20045;-76
2022/12/28 09:45:33;;;;;;;8.35;7.85;;;;;;;8.19;85.99;100632.88;5042565;28;20044;-75
2022/12/28 09:48:05;;;;;;;8.40;7.90;;;;;;;8.22;85.71;100625.00;5042452;28;20033;-76
2022/12/28 09:50:34;;;;;;;14.15;13.27;;;;;;;8.32;85.75;100611.91;5039573;28;20037;-76
2022/12/28 09:53:05;;;;;;;9.25;8.35;;;;;;;8.26;85.64;100604.00;5043806;28;20099;-76
2022/12/28 09:55:33;;;;;;;8.25;7.75;;;;;;;8.25;85.96;100607.53;5041883;28;20030;-76
2022/12/28 09:57:59;;;;;;;10.45;9.85;;;;;;;8.32;85.72;100598.75;5045361;28;20048;-76
2022/12/28 10:00:42;;;;;;;8.00;7.40;;;;;;;8.40;84.37;100604.09;5114561;23;20037;-79
2022/12/28 10:03:17;;;;;;;13.07;12.38;;;;;;;8.40;84.85;100590.94;5046949;28;20044;-80
2022/12/28 10:05:43;;;;;;;10.93;10.18;;;;;;;8.41;83.86;100591.81;5047280;28;20068;-79
2022/12/28 10:08:13;;;;;;;12.73;11.82;;;;;;;8.47;83.91;100581.34;5045263;28;20065;-80
2022/12/28 10:10:40;;;;;;;18.77;17.77;;;;;;;8.34;82.55;100578.63;5047635;28;20445;-80
2022/12/28 10:13:14;;;;;;;10.18;9.57;;;;;;;8.54;82.65;100577.81;5044664;28;20404;-79
2022/12/28 10:15:39;;;;;;;10.52;9.88;;;;;;;8.64;83.05;100571.72;5046552;28;20503;-79
2022/12/28 10:18:05;;;;;;;17.88;16.88;;;;;;;8.71;81.89;100572.63;5044514;28;20045;-79
2022/12/28 10:20:31;;;;;;;13.35;12.55;;;;;;;8.76;83.06;100573.50;5046323;28;20052;-80
2022/12/28 10:22:58;;;;;;;11.60;10.90;;;;;;;8.71;84.24;100578.75;5043691;28;20037;-80
2022/12/28 10:25:25;;;;;;;12.25;11.55;;;;;;;8.55;84.67;100580.47;5043411;28;20037;-79
2022/12/28 10:27:51;;;;;;;15.25;14.43;;;;;;;8.49;83.98;100580.47;5045644;28;20467;-80
2022/12/28 10:30:20;;;;;;;11.82;11.13;;;;;;;8.53;84.05;100576.06;5044329;28;20056;-80
2022/12/28 10:32:54;;;;;;;13.20;12.35;;;;;;;8.54;84.38;100577.81;5046727;28;20068;-80
2022/12/28 10:35:47;;;;;;;12.25;11.43;;;;;;;8.59;84.47;100559.44;5040680;28;20039;-80
2022/12/28 10:38:22;;;;;;;10.10;9.50;;;;;;;8.63;84.03;100562.06;5044987;28;20110;-79
2022/12/28 10:41:10;;;;;;;12.07;11.38;;;;;;;8.64;82.94;100555.94;5038906;28;20123;-79
2022/12/28 10:43:39;;;;;;;9.10;8.40;;;;;;;8.69;83.32;100551.56;5044926;28;20399;-79
2022/12/28 10:46:19;;;;;;;8.63;8.02;;;;;;;8.74;82.34;100548.94;5042747;28;20045;-80
2022/12/28 10:48:53;;;;;;;10.10;9.50;;;;;;;8.68;81.96;100543.69;5046721;28;20441;-80
2022/12/28 10:51:21;;;;;;;1999.90;999.90;;;;;;;8.74;82.22;100544.53;5043580;28;20037;-80
2022/12/28 10:53:50;;;;;;;1999.90;999.90;;;;;;;8.73;82.13;100545.44;5044158;28;20043;-79
2022/12/28 10:56:30;;;;;;;1999.90;999.90;;;;;;;8.73;82.19;100542.81;5042281;28;20025;-80
2022/12/28 10:59:13;;;;;;;1999.90;999.90;;;;;;;8.83;82.23;100533.19;5043317;28;20045;-79
2022/12/28 11:01:41;;;;;;;1999.90;999.90;;;;;;;8.82;82.97;100527.91;5044860;28;20044;-79
2022/12/28 11:04:14;;;;;;;1999.90;999.90;;;;;;;8.95;82.99;100522.63;5045274;28;20052;-80
2022/12/28 11:07:00;;;;;;;1999.90;999.90;;;;;;;9.11;82.13;100512.09;5039016;28;20393;-79
2022/12/28 11:09:28;;;;;;;1999.90;999.90;;;;;;;9.11;81.47;100512.97;5043288;28;20041;-79
2022/12/28 11:12:13;;;;;;;1999.90;999.90;;;;;;;9.17;81.20;100506.88;5044623;28;20130;-80
2022/12/28 11:14:39;;;;;;;1999.90;999.90;;;;;;;9.14;80.60;100497.22;5040596;28;20086;-79
2022/12/28 11:17:18;;;;;;;1999.90;999.90;;;;;;;9.15;80.76;100498.94;5043579;28;20051;-79
2022/12/28 11:19:45;;;;;;;1999.90;999.90;;;;;;;9.23;81.04;100491.03;5042858;28;20484;-80
2022/12/28 11:22:15;;;;;;;1999.90;999.90;;;;;;;9.12;81.29;100491.06;5038667;28;20106;-80
2022/12/28 11:24:40;;;;;;;1999.90;999.90;;;;;;;9.18;81.45;100485.78;5043537;28;20049;-80
2022/12/28 11:27:12;;;;;;;1999.90;999.90;;;;;;;9.28;81.67;100488.41;5043874;28;20050;-79
2022/12/28 11:29:42;;;;;;;1999.90;999.90;;;;;;;9.28;81.53;100484.00;5043040;28;20068;-80
2022/12/28 11:32:22;;;;;;;1999.90;999.90;;;;;;;9.34;80.37;100483.13;5055230;28;20107;-79
2022/12/28 11:34:48;;;;;;;1999.90;999.90;;;;;;;9.30;80.22;100476.09;5041329;28;20037;-80
2022/12/28 11:37:14;;;;;;;1999.90;999.90;;;;;;;9.30;81.04;100481.34;5038405;28;20045;-80
2022/12/28 11:39:47;;;;;;;1999.90;999.90;;;;;;;9.30;80.45;100468.19;5042789;28;20048;-79
2022/12/28 11:42:51;;;;;;;1999.90;999.90;;;;;;;9.27;80.88;100469.06;5038935;28;20029;-79
2022/12/28 11:45:49;;;;;;;1999.90;999.90;;;;;;;9.34;80.44;100467.31;5046599;28;20123;-80
2022/12/28 11:48:40;;;;;;;1999.90;999.90;;;;;;;9.34;80.64;100462.91;5028885;28;20488;-80
2022/12/28 11:51:21;;;;;;;1999.90;999.90;;;;;;;9.33;79.76;100470.84;5042119;28;20045;-78
2022/12/28 11:54:01;;;;;;;1999.90;999.90;;;;;;;9.34;80.54;100468.19;5044763;28;20403;-79
2022/12/28 11:56:42;;;;;;;1999.90;999.90;;;;;;;9.31;80.90;100475.22;5045204;28;20479;-79
2022/12/28 11:59:21;;;;;;;1999.90;999.90;;;;;;;9.19;81.55;100463.81;5043335;28;20041;-79
2022/12/28 12:01:49;;;;;;;1999.90;999.90;;;;;;;9.20;81.16;100470.84;5039895;28;20483;-79
2022/12/28 12:04:30;;;;;;;1999.90;999.90;;;;;;;9.30;81.28;100470.81;5043780;28;20033;-79